createdAt,value
2024-05-09T00:00:29.771Z,100.00
2024-05-09T00:03:20.065Z,100.00
2024-05-09T00:06:12.792Z,100.00
2024-05-09T00:09:01.830Z,100.00
2024-05-09T00:11:51.049Z,100.00
2024-05-09T00:14:40.334Z,100.00
2024-05-09T00:17:29.549Z,100.00
2024-05-09T00:20:24.590Z,100.00
2024-05-09T00:23:24.529Z,100.00
2024-05-09T00:26:13.425Z,100.00
2024-05-09T00:29:02.116Z,100.00
2024-05-09T00:31:50.787Z,100.00
2024-05-09T00:34:40.269Z,100.00
2024-05-09T00:37:28.928Z,100.00
2024-05-09T00:40:30.747Z,100.00
2024-05-09T00:43:27.073Z,100.00
2024-05-09T00:46:15.780Z,100.00
2024-05-09T00:49:05.695Z,100.00
2024-05-09T00:51:54.794Z,100.00
2024-05-09T00:54:43.738Z,100.00
2024-05-09T00:57:35.922Z,100.00
2024-05-09T01:00:35.684Z,100.00
2024-05-09T01:03:29.241Z,100.00
2024-05-09T01:06:18.506Z,100.00
2024-05-09T01:09:07.799Z,100.00
2024-05-09T01:11:56.588Z,100.00
2024-05-09T01:14:48.502Z,100.00
2024-05-09T01:17:37.716Z,100.00
2024-05-09T01:20:37.255Z,100.00
2024-05-09T01:23:34.042Z,100.00
2024-05-09T01:26:23.187Z,100.00
2024-05-09T01:29:11.929Z,100.00
2024-05-09T01:32:01.295Z,100.00
2024-05-09T01:34:50.110Z,100.00
2024-05-09T01:37:40.545Z,100.00
2024-05-09T01:40:37.406Z,100.00
2024-05-09T01:43:28.359Z,100.00
2024-05-09T01:46:19.356Z,100.00
2024-05-09T01:49:08.335Z,100.00
2024-05-09T01:54:53.803Z,100.00
2024-05-09T01:57:45.169Z,100.00
2024-05-09T02:00:39.526Z,100.00
2024-05-09T02:03:31.092Z,100.00
2024-05-09T02:06:20.126Z,100.00
2024-05-09T02:09:09.330Z,100.00
2024-05-09T02:11:58.958Z,100.00
2024-05-09T02:14:51.397Z,100.00
2024-05-09T02:17:40.687Z,100.00
2024-05-09T02:20:34.228Z,100.00
2024-05-09T02:23:26.153Z,100.00
2024-05-09T02:26:14.843Z,100.00
2024-05-09T02:29:03.639Z,100.00
2024-05-09T02:31:55.226Z,100.00
2024-05-09T02:34:44.056Z,100.00
2024-05-09T02:37:33.090Z,100.00
2024-05-09T02:40:25.679Z,100.00
2024-05-09T02:43:22.757Z,100.00
2024-05-09T02:46:09.103Z,100.00
2024-05-09T02:49:00.908Z,100.00
2024-05-09T02:51:47.415Z,100.00
2024-05-09T02:54:36.269Z,100.00
2024-05-09T02:57:22.745Z,100.00
2024-05-09T03:00:18.829Z,100.00
2024-05-09T03:03:11.113Z,100.00
2024-05-09T03:06:04.944Z,100.00
2024-05-09T03:08:51.068Z,100.00
2024-05-09T03:11:40.719Z,100.00
2024-05-09T03:14:27.632Z,100.00
2024-05-09T03:17:16.616Z,100.00
2024-05-09T03:20:06.964Z,100.00
2024-05-09T03:23:00.662Z,100.00
2024-05-09T03:25:46.712Z,100.00
2024-05-09T03:28:35.944Z,100.00
2024-05-09T03:31:22.692Z,100.00
2024-05-09T03:34:11.592Z,100.00
2024-05-09T03:37:00.668Z,100.00
2024-05-09T03:39:52.971Z,100.00
2024-05-09T03:42:42.112Z,100.00
2024-05-09T03:45:31.416Z,100.00
2024-05-09T03:48:18.005Z,100.00
2024-05-09T03:51:07.287Z,100.00
2024-05-09T03:53:53.574Z,100.00
2024-05-09T03:56:47.939Z,100.00
2024-05-09T03:59:34.619Z,100.00
2024-05-09T04:02:24.120Z,100.00
2024-05-09T04:05:10.269Z,100.00
2024-05-09T04:07:58.929Z,100.00
2024-05-09T04:10:46.052Z,100.00
2024-05-09T04:13:38.296Z,100.00
2024-05-09T04:16:25.208Z,100.00
2024-05-09T04:19:14.532Z,100.00
2024-05-09T04:22:01.430Z,100.00
2024-05-09T04:24:51.124Z,100.00
2024-05-09T04:27:37.380Z,100.00
2024-05-09T04:30:37.157Z,100.00
2024-05-09T04:33:29.913Z,100.00
2024-05-09T04:36:16.665Z,100.00
2024-05-09T04:39:05.802Z,100.00
2024-05-09T04:41:57.281Z,100.00
2024-05-09T04:44:43.792Z,100.00
2024-05-09T04:47:35.622Z,100.00
2024-05-09T04:50:30.019Z,100.00
2024-05-09T04:53:25.347Z,100.00
2024-05-09T04:56:12.218Z,100.00
2024-05-09T04:59:00.944Z,100.00
2024-05-09T05:01:48.007Z,100.00
2024-05-09T05:04:40.145Z,100.00
2024-05-09T05:07:27.258Z,100.00
2024-05-09T05:10:21.624Z,100.00
2024-05-09T05:13:18.287Z,100.00
2024-05-09T05:16:09.342Z,100.00
2024-05-09T05:18:56.424Z,99.20
2024-05-09T05:21:48.272Z,98.69
2024-05-09T05:24:34.516Z,98.04
2024-05-09T05:27:23.184Z,97.46
2024-05-09T05:30:17.571Z,96.83
2024-05-09T05:33:14.340Z,95.91
2024-05-09T05:36:00.932Z,93.88
2024-05-09T05:38:53.192Z,93.06
2024-05-09T05:41:38.807Z,92.95
2024-05-09T05:44:28.078Z,92.34
2024-05-09T05:47:14.596Z,91.97
2024-05-09T05:50:07.219Z,91.92
2024-05-09T05:52:57.635Z,91.42
2024-05-09T05:55:50.112Z,90.72
2024-05-09T05:58:36.590Z,90.62
2024-05-09T06:01:26.097Z,89.84
2024-05-09T06:04:13.385Z,88.59
2024-05-09T06:07:04.928Z,87.24
2024-05-09T06:09:50.796Z,85.84
2024-05-09T06:12:43.238Z,85.12
2024-05-09T06:15:30.456Z,82.36
2024-05-09T06:18:19.951Z,80.94
2024-05-09T06:21:06.823Z,80.84
2024-05-09T06:23:55.771Z,80.64
2024-05-09T06:26:42.640Z,81.01
2024-05-09T06:29:34.231Z,81.60
2024-05-09T06:32:21.389Z,81.41
2024-05-09T06:35:10.645Z,80.79
2024-05-09T06:37:56.894Z,81.30
2024-05-09T06:40:46.082Z,80.30
2024-05-09T06:43:32.649Z,78.53
2024-05-09T06:46:25.757Z,78.11
2024-05-09T06:49:15.898Z,80.07
2024-05-09T06:52:01.985Z,78.91
2024-05-09T06:54:52.133Z,77.40
2024-05-09T06:57:40.555Z,76.77
2024-05-09T07:00:38.543Z,76.33
2024-05-09T07:03:32.962Z,75.09
2024-05-09T07:06:20.151Z,74.63
2024-05-09T07:09:08.812Z,73.67
2024-05-09T07:11:54.879Z,73.19
2024-05-09T07:14:43.746Z,73.38
2024-05-09T07:17:30.605Z,71.84
2024-05-09T07:20:31.752Z,69.19
2024-05-09T07:23:24.159Z,69.60
2024-05-09T07:26:10.457Z,69.36
2024-05-09T07:28:59.778Z,69.13
2024-05-09T07:31:46.129Z,68.90
2024-05-09T07:34:35.433Z,65.03
2024-05-09T07:37:24.267Z,65.56
2024-05-09T07:40:24.090Z,65.78
2024-05-09T07:43:18.632Z,64.75
2024-05-09T07:47:04.471Z,65.51
2024-05-09T07:55:00.880Z,64.78
2024-05-09T07:57:50.095Z,66.22
2024-05-09T08:00:36.344Z,63.29
2024-05-09T08:03:25.992Z,61.01
2024-05-09T08:06:15.355Z,60.61
2024-05-09T08:09:08.139Z,61.43
2024-05-09T08:12:02.568Z,59.19
2024-05-09T08:14:53.315Z,57.43
2024-05-09T08:17:40.045Z,55.83
2024-05-09T08:20:33.505Z,56.73
2024-05-09T08:23:21.441Z,56.10
2024-05-09T08:26:10.403Z,57.40
2024-05-09T08:28:59.951Z,55.48
2024-05-09T08:31:48.663Z,55.47
2024-05-09T08:34:35.674Z,55.02
2024-05-09T08:37:29.434Z,54.38
2024-05-09T08:40:27.304Z,54.75
2024-05-09T08:43:23.816Z,50.51
2024-05-09T08:46:13.748Z,49.11
2024-05-09T08:49:04.236Z,49.62
2024-05-09T08:51:51.052Z,49.86
2024-05-09T08:54:40.259Z,50.79
2024-05-09T08:57:27.218Z,48.92
2024-05-09T09:00:21.744Z,49.21
2024-05-09T09:03:19.963Z,49.10
2024-05-09T09:06:10.758Z,45.94
2024-05-09T09:08:58.011Z,46.58
2024-05-09T09:11:50.247Z,46.86
2024-05-09T09:14:36.445Z,47.35
2024-05-09T09:17:27.087Z,47.55
2024-05-09T09:20:23.019Z,48.23
2024-05-09T09:23:18.163Z,47.56
2024-05-09T09:26:08.088Z,46.68
2024-05-09T09:29:00.593Z,46.89
2024-05-09T09:31:49.413Z,46.73
2024-05-09T09:34:36.061Z,45.61
2024-05-09T09:37:32.359Z,44.14
2024-05-09T09:40:22.444Z,44.87
2024-05-09T09:43:18.129Z,44.26
2024-05-09T09:46:08.697Z,44.52
2024-05-09T09:48:59.854Z,44.94
2024-05-09T09:51:49.546Z,44.50
2024-05-09T09:54:41.624Z,43.47
2024-05-09T09:57:30.414Z,42.85
2024-05-09T10:00:26.833Z,43.10
2024-05-09T10:03:17.883Z,44.80
2024-05-09T10:06:07.644Z,45.02
2024-05-09T10:08:54.804Z,45.66
2024-05-09T10:11:51.801Z,47.10
2024-05-09T10:14:46.499Z,45.77
2024-05-09T10:17:35.570Z,45.00
2024-05-09T10:20:27.668Z,42.13
2024-05-09T10:23:27.835Z,42.34
2024-05-09T10:26:14.258Z,41.25
2024-05-09T10:29:14.245Z,44.32
2024-05-09T10:32:00.511Z,45.39
2024-05-09T10:35:03.216Z,45.21
2024-05-09T10:37:51.387Z,45.65
2024-05-09T10:40:41.516Z,44.30
2024-05-09T10:43:28.845Z,43.00
2024-05-09T10:46:21.722Z,42.07
2024-05-09T10:49:08.714Z,42.00
2024-05-09T10:51:58.724Z,41.03
2024-05-09T10:54:45.226Z,41.38
2024-05-09T10:57:45.506Z,39.65
2024-05-09T11:00:36.042Z,37.97
2024-05-09T11:03:29.502Z,40.13
2024-05-09T11:06:18.093Z,40.74
2024-05-09T11:09:07.227Z,42.20
2024-05-09T11:11:53.991Z,44.77
2024-05-09T11:14:43.870Z,39.97
2024-05-09T11:17:37.739Z,41.80
2024-05-09T11:20:37.807Z,39.07
2024-05-09T11:23:27.068Z,42.52
2024-05-09T11:26:19.591Z,40.82
2024-05-09T11:29:06.024Z,40.39
2024-05-09T11:31:54.845Z,36.96
2024-05-09T11:34:42.683Z,37.45
2024-05-09T11:37:37.160Z,36.35
2024-05-09T11:40:32.373Z,37.78
2024-05-09T11:43:21.404Z,38.02
2024-05-09T11:46:13.935Z,38.59
2024-05-09T11:49:00.566Z,39.34
2024-05-09T11:51:50.117Z,39.89
2024-05-09T11:54:39.392Z,39.66
2024-05-09T11:57:29.668Z,39.39
2024-05-09T12:00:24.575Z,37.91
2024-05-09T12:03:20.964Z,39.02
2024-05-09T12:06:10.412Z,37.22
2024-05-09T12:08:59.072Z,40.72
2024-05-09T12:11:48.087Z,39.61
2024-05-09T12:14:37.464Z,37.78
2024-05-09T12:17:24.257Z,39.66
2024-05-09T12:20:21.134Z,40.06
2024-05-09T12:23:11.776Z,38.04
2024-05-09T12:26:01.321Z,35.52
2024-05-09T12:28:51.752Z,37.90
2024-05-09T12:31:41.384Z,37.76
2024-05-09T12:34:28.106Z,37.06
2024-05-09T12:37:16.912Z,37.84
2024-05-09T12:40:12.719Z,38.83
2024-05-09T12:43:08.227Z,38.47
2024-05-09T12:45:58.209Z,38.72
2024-05-09T12:48:47.373Z,37.64
2024-05-09T12:51:34.778Z,37.61
2024-05-09T12:54:24.446Z,36.77
2024-05-09T12:57:11.354Z,37.90
2024-05-09T13:00:00.680Z,36.34
2024-05-09T13:02:50.209Z,38.75
2024-05-09T13:05:42.523Z,38.59
2024-05-09T13:08:29.643Z,38.77
2024-05-09T13:11:18.594Z,38.19
2024-05-09T13:14:04.721Z,38.03
2024-05-09T13:16:53.430Z,38.57
2024-05-09T13:19:43.150Z,38.70
2024-05-09T13:22:31.898Z,38.28
2024-05-09T13:25:18.571Z,36.53
2024-05-09T13:28:08.616Z,38.44
2024-05-09T13:30:55.288Z,37.56
2024-05-09T13:33:44.776Z,39.88
2024-05-09T13:36:34.901Z,37.75
2024-05-09T13:39:24.195Z,38.99
2024-05-09T13:42:10.826Z,38.93
2024-05-09T13:44:59.688Z,37.37
2024-05-09T13:47:46.068Z,34.52
2024-05-09T13:50:36.817Z,34.41
2024-05-09T13:53:28.850Z,33.96
2024-05-09T13:56:15.054Z,33.24
2024-05-09T13:59:04.423Z,35.78
2024-05-09T14:01:51.129Z,35.40
2024-05-09T14:04:41.074Z,32.58
2024-05-09T14:07:27.871Z,34.18
2024-05-09T14:10:26.012Z,35.54
2024-05-09T14:13:20.265Z,34.44
2024-05-09T14:16:07.433Z,36.03
2024-05-09T14:18:57.134Z,36.43
2024-05-09T14:21:49.881Z,38.22
2024-05-09T14:24:38.103Z,37.34
2024-05-09T14:27:30.026Z,37.81
2024-05-09T14:30:25.802Z,38.26
2024-05-09T14:33:25.637Z,39.47
2024-05-09T14:36:12.929Z,39.08
2024-05-09T14:39:02.409Z,38.38
2024-05-09T14:41:58.255Z,38.31
2024-05-09T14:44:49.985Z,38.28
2024-05-09T14:47:36.437Z,38.59
2024-05-09T14:50:34.661Z,39.49
2024-05-09T14:53:26.819Z,38.63
2024-05-09T14:56:16.318Z,39.16
2024-05-09T14:59:03.697Z,38.69
2024-05-09T15:01:55.802Z,39.85
2024-05-09T15:04:42.823Z,39.53
2024-05-09T15:07:32.935Z,38.67
2024-05-09T15:10:26.926Z,37.87
2024-05-09T15:13:24.169Z,36.31
2024-05-09T15:16:12.958Z,36.77
2024-05-09T15:19:02.748Z,37.69
2024-05-09T15:21:52.382Z,36.60
2024-05-09T15:24:41.635Z,37.08
2024-05-09T15:27:31.041Z,36.21
2024-05-09T15:30:20.838Z,36.23
2024-05-09T15:33:13.468Z,37.39
2024-05-09T15:36:02.736Z,37.08
2024-05-09T15:38:52.639Z,37.75
2024-05-09T15:41:39.207Z,37.31
2024-05-09T15:44:28.969Z,38.79
2024-05-09T15:47:15.240Z,38.34
2024-05-09T15:50:07.762Z,38.40
2024-05-09T15:52:59.046Z,37.42
2024-05-09T15:55:48.956Z,37.77
2024-05-09T15:58:35.097Z,38.25
2024-05-09T16:01:24.434Z,39.12
2024-05-09T16:04:11.847Z,39.11
2024-05-09T16:07:01.548Z,41.39
2024-05-09T16:09:50.927Z,39.62
2024-05-09T16:12:40.001Z,41.01
2024-05-09T16:15:26.709Z,42.60
2024-05-09T16:18:15.652Z,42.69
2024-05-09T16:21:02.522Z,41.36
2024-05-09T16:23:51.934Z,42.31
2024-05-09T16:26:41.430Z,41.53
2024-05-09T16:29:30.669Z,43.44
2024-05-09T16:32:17.923Z,45.34
2024-05-09T16:35:07.570Z,45.83
2024-05-09T16:37:54.438Z,45.21
2024-05-09T16:40:43.783Z,45.79
2024-05-09T16:43:33.543Z,46.04
2024-05-09T16:46:23.370Z,46.47
2024-05-09T16:49:11.322Z,46.54
2024-05-09T16:52:00.496Z,47.77
2024-05-09T16:54:47.396Z,48.04
2024-05-09T16:57:37.241Z,48.72
2024-05-09T17:00:36.602Z,49.64
2024-05-09T17:03:30.976Z,49.62
2024-05-09T17:06:17.627Z,49.78
2024-05-09T17:09:11.645Z,49.71
2024-05-09T17:12:04.262Z,49.99
2024-05-09T17:14:53.785Z,50.32
2024-05-09T17:17:45.855Z,51.07
2024-05-09T17:20:37.015Z,52.13
2024-05-09T17:23:23.864Z,51.17
2024-05-09T17:26:13.016Z,51.79
2024-05-09T17:28:59.159Z,52.81
2024-05-09T17:31:48.811Z,55.15
2024-05-09T17:34:37.423Z,58.18
2024-05-09T17:37:27.338Z,59.90
2024-05-09T17:40:16.979Z,62.15
2024-05-09T17:43:08.210Z,64.52
2024-05-09T17:45:56.458Z,66.27
2024-05-09T17:48:45.701Z,66.70
2024-05-09T17:51:37.796Z,67.26
2024-05-09T17:54:24.787Z,67.65
2024-05-09T17:57:13.748Z,68.19
2024-05-09T18:00:00.177Z,68.96
2024-05-09T18:02:49.224Z,70.21
2024-05-09T18:05:37.162Z,71.37
2024-05-09T18:08:29.555Z,71.43
2024-05-09T18:11:16.343Z,71.67
2024-05-09T18:14:05.458Z,72.53
2024-05-09T18:16:51.560Z,72.76
2024-05-09T18:19:40.548Z,73.33
2024-05-09T18:22:27.373Z,73.96
2024-05-09T18:25:18.985Z,74.83
2024-05-09T18:28:05.995Z,76.03
2024-05-09T18:30:55.307Z,76.98
2024-05-09T18:33:42.061Z,78.45
2024-05-09T18:36:31.014Z,79.20
2024-05-09T18:39:17.551Z,78.87
2024-05-09T18:42:09.720Z,78.41
2024-05-09T18:44:55.984Z,78.58
2024-05-09T18:47:45.134Z,79.12
2024-05-09T18:50:36.063Z,79.63
2024-05-09T18:53:28.469Z,78.76
2024-05-09T18:56:14.950Z,79.20
2024-05-09T18:59:06.071Z,79.17
2024-05-09T19:01:52.844Z,79.57
2024-05-09T19:04:41.908Z,79.18
2024-05-09T19:07:29.302Z,79.51
2024-05-09T19:10:22.882Z,79.65
2024-05-09T19:13:14.071Z,79.56
2024-05-09T19:16:06.667Z,78.84
2024-05-09T19:18:54.226Z,79.28
2024-05-09T19:21:43.227Z,78.71
2024-05-09T19:24:30.257Z,78.94
2024-05-09T19:27:19.371Z,78.95
2024-05-09T19:30:14.263Z,78.88
2024-05-09T19:33:19.041Z,78.81
2024-05-09T19:36:06.191Z,78.56
2024-05-09T19:38:55.674Z,78.94
2024-05-09T19:41:42.511Z,79.64
2024-05-09T19:44:32.318Z,79.76
2024-05-09T19:47:18.698Z,79.47
2024-05-09T19:50:16.258Z,79.49
2024-05-09T19:53:10.090Z,79.50
2024-05-09T19:56:02.035Z,79.68
2024-05-09T19:58:51.718Z,79.57
2024-05-09T20:01:38.260Z,79.68
2024-05-09T20:04:27.979Z,79.87
2024-05-09T20:07:17.430Z,80.45
2024-05-09T20:10:16.165Z,80.55
2024-05-09T20:13:08.344Z,80.30
2024-05-09T20:15:57.866Z,80.13
2024-05-09T20:18:47.768Z,80.48
2024-05-09T20:21:33.936Z,80.84
2024-05-09T20:24:26.220Z,80.85
2024-05-09T20:27:12.542Z,80.83
2024-05-09T20:30:03.086Z,80.39
2024-05-09T20:32:52.224Z,80.20
2024-05-09T20:35:41.050Z,80.95
2024-05-09T20:38:27.432Z,81.08
2024-05-09T20:41:19.338Z,81.73
2024-05-09T20:44:06.413Z,81.47
2024-05-09T20:46:55.023Z,81.35
2024-05-09T20:49:41.316Z,81.90
2024-05-09T20:52:31.324Z,81.86
2024-05-09T20:55:18.224Z,82.84
2024-05-09T20:58:11.280Z,82.52
2024-05-09T21:01:00.369Z,82.18
2024-05-09T21:03:48.329Z,81.94
2024-05-09T21:06:37.366Z,81.96
2024-05-09T21:09:26.154Z,81.28
2024-05-09T21:12:15.525Z,81.85
2024-05-09T21:15:05.041Z,82.50
2024-05-09T21:17:54.096Z,83.22
2024-05-09T21:20:40.931Z,82.72
2024-05-09T21:23:29.683Z,82.75
2024-05-09T21:26:17.402Z,82.07
2024-05-09T21:29:06.165Z,81.90
2024-05-09T21:31:55.236Z,82.03
2024-05-09T21:34:44.496Z,81.76
2024-05-09T21:37:31.353Z,82.27
2024-05-09T21:40:30.621Z,82.69
2024-05-09T21:43:20.005Z,82.54
2024-05-09T21:46:10.415Z,82.91
2024-05-09T21:48:59.402Z,83.03
2024-05-09T21:51:48.083Z,83.62
2024-05-09T21:54:33.951Z,83.84
2024-05-09T21:57:23.148Z,83.85
2024-05-09T22:00:27.926Z,83.94
2024-05-09T22:03:24.105Z,85.29
2024-05-09T22:06:13.083Z,87.75
2024-05-09T22:09:05.559Z,87.81
2024-05-09T22:11:52.956Z,87.83
2024-05-09T22:14:42.771Z,87.72
2024-05-09T22:17:28.580Z,87.74
2024-05-09T22:20:25.743Z,87.77
2024-05-09T22:23:22.608Z,87.70
2024-05-09T22:26:12.077Z,88.42
2024-05-09T22:28:58.161Z,88.26
2024-05-09T22:31:47.356Z,87.90
2024-05-09T22:34:33.767Z,88.01
2024-05-09T22:37:22.484Z,88.17
2024-05-09T22:40:15.125Z,87.98
2024-05-09T22:43:09.543Z,87.34
2024-05-09T22:45:56.218Z,87.32
2024-05-09T22:48:45.102Z,86.95
2024-05-09T22:51:31.553Z,86.44
2024-05-09T22:54:21.234Z,86.75
2024-05-09T22:57:10.091Z,87.55
2024-05-09T22:59:59.457Z,88.53
2024-05-09T23:02:45.617Z,89.44
2024-05-09T23:05:34.964Z,89.08
2024-05-09T23:08:21.246Z,88.69
2024-05-09T23:11:10.534Z,88.57
2024-05-09T23:13:59.549Z,88.31
2024-05-09T23:16:49.020Z,87.66
2024-05-09T23:19:35.894Z,87.13
2024-05-09T23:22:25.043Z,87.01
2024-05-09T23:25:11.385Z,86.91
2024-05-09T23:28:13.689Z,87.43
2024-05-09T23:31:05.459Z,87.07
2024-05-09T23:33:52.185Z,87.10
2024-05-09T23:36:41.064Z,87.32
2024-05-09T23:39:27.820Z,87.14
2024-05-09T23:42:17.474Z,86.66
2024-05-09T23:45:03.540Z,87.75
2024-05-09T23:47:56.427Z,87.79
2024-05-09T23:50:42.375Z,88.96
2024-05-09T23:53:31.005Z,89.26
2024-05-09T23:56:21.413Z,89.11
2024-05-09T23:59:10.366Z,89.58
